메인 페이지
METAR-TAF:

METAR-TAF

공항 :

아비장, 코트디부아르

위도: 05-15N, 경도: 003-56W, 고도: 7m

현재 날씨관측

예보는 34분 전, 22:30시(UTC)에 발표되었습니다.
동북동16kt
온도 24°C
습도 94%
기압 1014 hPa
시정: 9000m
고도 1100ft 상공 구름 조금
고도 2000ft 상공 구름 조금, 적란운.
고도 3000ft 상공 흐림
뇌우, 약한비

METAR: DIAP 282230Z 06016KT 9000 -TSRA FEW011 FEW020CB OVC030 24/23 Q1014 TEMPO 4000 TSRA

시각: 23:04 (23:04 UTC)

예보

예보는 5 시간 34분 전, 17:30시(UTC)에 발표되었습니다.
예보 대상 시간: 28일 18시부터 29일 24시까지 (UTC)
남서10kt
시정: 8000m
고도 1200ft 상공 구름 많음
고도 2000ft 상공 구름 조금, 적란운.
고도 4000ft 상공 구름 많음
뇌우
일시적
28일 20시부터 29일 01시까지 (UTC)
여러 방향의 바람 15kt, 순간 최대 풍속 25kt
시정: 2500m
고도 1000ft 상공 구름 많음
고도 2000ft 상공 구름 조금, 적란운.
고도 3000ft 상공 흐림
뇌우, 비
전환 중
29일 01시부터 29일 02시까지 (UTC)
여러 방향의 바람 2kt
고도 1000ft 상공 구름 조금
확률 40% :
일시적
29일 05시부터 29일 07시까지 (UTC)
시정: 4000m
박무
전환 중
29일 11시부터 29일 12시까지 (UTC)
남남서10kt

TAF: DIAP 281730Z 2818/2924 23010KT 8000 TS BKN012 FEW020CB BKN040 TEMPO 2820/2901 VRB15G25KT 2500 TSRA BKN010 FEW020CB OVC030 BECMG 2901/2902 VRB02KT NSW FEW010 PROB40 TEMPO 2905/2907 4000 BR BECMG 2911/2912 20010KT

4,000개 이상의 공항 관측 자료 및 예보 (METAR 및 TAF 보고).

지도상에서 검색 가능한 기상관측소가 노란 점과 빨간 점으로 표시되어 있습니다.

기상관측소 명을 보려면 표시 위로 마우스를 이동하세요.

날씨 관측과 예보를 보려면 클릭하세요.

지도 변경 : 확대하려면 엑스 표시가 있는 녹색 버튼, 축소하려면 빼기 표시가 있는 녹색 버튼, 다음 페이지의 지도를 보려면 녹색 화살표를 클릭하세요.


METAR-TAF: